Honobia, Oklahoma
Current Conditions -  °F | °C
As of 5:55 PM on Monday 20 Oct 2014 (Local Time) from KRKR Reporting Station
Scattered Clouds Scattered Clouds  
Wind Chill: 73°   Ceiling: Unl
Heat Index: 73°   Visibility: 10mi
Dew Point: 60°   Wind: 0mph
Humidity: 63%   Direction: NA
Pressure: 30.01"   Gusts: NA
Location:  34.54°N, 94.94°W
Report Text: KRKR 202255Z AUTO 00000KT 10SM SCT090 23/16 A3001 RMK AO2 T02300155
Loading
Personal Weather Stations






























Interactive Weather Map
Tropical Storm Tracking
New forecast layout! Learn more

10-Day Weather Forecast

Advertisements
Track Severe Weather on mobile